首页
METAR-TAF:

METAR-TAF

机场 :

开罗, 埃及

開羅國際機場

纬度: 30-08N, 经度: 031-24E, 海拔: 64米

当前天气观测

该预报发布于15分钟前的18:00 UTC
风速14节,风向北转西北
温度 22°C
湿度 57%
气压 1013 hPa
能見度: 6000
少量云层高于2000英尺, 积雨云.
散云层高于2500英尺

METAR: HECA 241800Z 34014KT 6000 FEW020CB SCT025 22/13 Q1013 NOSIG

时间: 20:15 (18:15 UTC)

预报

该预报发布于15分钟前的18:00 UTC
预报有效从24日的 18点(UTC)到 25日的 24点(UTC)
风速8节,风向北转西北
能见度10公里或以上
散云层高于2500英尺
短暂存在
从 24日的 18点(UTC)到 25日的 12点(UTC)
风速10节,风向北转西北,有时为20节阵风
能見度: 4000
散云层高于2500英尺, 积雨云.
多云层高于5000英尺
扬沙

TAF: HECA 241800Z 2418/2524 34008KT 9999 SCT025 TEMPO 2418/2512 34010G20KT 4000 TSSHRA SA SCT025CB BKN050

超过4000个机场的气象观测和天气预报(METAR&TAF报告)。

可查询的气象台以黄色和红色小点在地图上表示。

将鼠标移到小点上方,可查看气象台名称。

然后点击查看天气观测和预报。

如需切换地图:点击带黑十字的绿色按钮放大地图;点击带横线的绿色按钮缩小地图;或者点击绿色箭头查看邻近地区的地图。


METAR-TAF: